Time;durP1;ratioP1;P1;durP2;ratioP2;P2;SDS_P1;SDS_P2;PMS_P1;PMS_P2;Temp;Humidity;BMP_temperature;BMP_pressure;BME280_temperature;BME280_humidity;BME280_pressure;Samples;Min_cycle;Max_cycle;Signal;HPM_P1;HPM_P2
2023/11/12 17:49:56;;;;;;;4.53;2.60;;;9.50;99.90;;;;;;3388553;23;20988;-71
2023/11/12 17:52:25;;;;;;;4.30;2.13;;;9.50;99.90;;;;;;4895331;29;20206;-79
2023/11/12 17:54:52;;;;;;;6.27;2.40;;;9.40;99.90;;;;;;4897950;29;20620;-79
2023/11/12 17:57:20;;;;;;;4.90;2.10;;;9.50;99.90;;;;;;4889690;29;20235;-78
2023/11/12 17:59:47;;;;;;;5.53;1.63;;;9.50;99.90;;;;;;4883053;29;20214;-80
2023/11/12 18:02:14;;;;;;;4.03;1.87;;;9.50;99.90;;;;;;4888121;29;20210;-79
2023/11/12 18:04:41;;;;;;;4.43;1.87;;;9.60;99.90;;;;;;4892229;29;20644;-78
2023/11/12 18:07:13;;;;;;;2.93;1.73;;;9.50;99.90;;;;;;4880640;29;20504;-78
2023/11/12 18:09:41;;;;;;;6.10;1.90;;;9.50;99.90;;;;;;4890510;29;20221;-78
2023/11/12 18:12:08;;;;;;;4.30;1.67;;;9.50;99.90;;;;;;4882812;29;20215;-78
2023/11/12 18:14:35;;;;;;;2.40;1.50;;;9.40;99.90;;;;;;4879281;29;20242;-76
2023/11/12 18:17:02;;;;;;;4.83;1.77;;;9.30;99.90;;;;;;4891028;29;20612;-76
2023/11/12 18:19:30;;;;;;;2.80;1.33;;;9.30;99.90;;;;;;4888680;29;20214;-79
2023/11/12 18:21:57;;;;;;;3.37;1.40;;;9.30;99.90;;;;;;4882165;29;20302;-78
2023/11/12 18:24:25;;;;;;;2.20;1.20;;;9.40;99.90;;;;;;4879175;29;20574;-78
2023/11/12 18:26:55;;;;;;;2.90;1.33;;;9.50;99.90;;;;;;4888449;29;20237;-78
2023/11/12 18:29:22;;;;;;;4.43;1.00;;;9.30;99.90;;;;;;4893352;29;20218;-78
2023/11/12 18:31:49;;;;;;;3.80;1.70;;;9.30;99.90;;;;;;4879283;29;20207;-76
2023/11/12 18:34:16;;;;;;;1.33;1.00;;;9.20;99.90;;;;;;4882308;29;20332;-77
2023/11/12 18:36:44;;;;;;;5.63;1.50;;;9.20;99.90;;;;;;4891209;29;20230;-77
2023/11/12 18:39:11;;;;;;;3.33;0.93;;;9.30;99.90;;;;;;4882699;29;20215;-78
2023/11/12 18:41:40;;;;;;;2.27;1.50;;;9.40;99.90;;;;;;4897518;29;20218;-77
2023/11/12 18:44:08;;;;;;;3.00;1.50;;;9.30;99.90;;;;;;4880415;29;20298;-78
2023/11/12 18:46:36;;;;;;;3.57;1.67;;;9.30;99.90;;;;;;4878654;29;20231;-76
2023/11/12 18:49:03;;;;;;;3.07;1.60;;;9.30;99.90;;;;;;4879238;29;20227;-77
2023/11/12 18:51:30;;;;;;;4.03;1.00;;;9.40;99.90;;;;;;4882459;29;20313;-78
2023/11/12 18:53:57;;;;;;;2.33;1.83;;;9.40;99.90;;;;;;4887587;29;20585;-78
2023/11/12 18:56:25;;;;;;;3.07;1.30;;;9.30;99.90;;;;;;4900360;29;20305;-70
2023/11/12 18:58:55;;;;;;;4.00;1.30;;;9.20;99.90;;;;;;4887803;29;20232;-69
2023/11/12 19:01:22;;;;;;;3.73;1.30;;;9.30;99.90;;;;;;4888017;29;20575;-71
2023/11/12 19:03:49;;;;;;;3.03;1.57;;;9.30;99.90;;;;;;4900383;29;20302;-70
2023/11/12 19:06:16;;;;;;;5.67;1.70;;;9.50;99.90;;;;;;4900845;29;20206;-70
2023/11/12 19:08:43;;;;;;;2.57;1.40;;;9.50;99.90;;;;;;4894542;29;20753;-78
2023/11/12 19:11:11;;;;;;;2.93;1.53;;;9.50;99.90;;;;;;4889926;29;20311;-77
2023/11/12 19:13:39;;;;;;;3.60;1.73;;;9.50;99.90;;;;;;4882473;29;20211;-78
2023/11/12 19:16:09;;;;;;;2.57;1.33;;;9.50;99.90;;;;;;4882133;29;20242;-77
2023/11/12 19:18:37;;;;;;;1.93;1.40;;;9.40;99.90;;;;;;4889632;29;20289;-78
2023/11/12 19:21:04;;;;;;;2.27;1.63;;;9.30;99.90;;;;;;4885994;29;20215;-78
2023/11/12 19:23:31;;;;;;;2.27;1.60;;;9.40;99.90;;;;;;4882107;29;20211;-77
2023/11/12 19:25:58;;;;;;;2.83;1.63;;;9.40;99.90;;;;;;4881625;29;20211;-77
2023/11/12 19:28:24;;;;;;;4.63;1.93;;;9.40;99.90;;;;;;4890019;29;20242;-77
2023/11/12 19:30:51;;;;;;;3.30;1.70;;;9.40;99.90;;;;;;4885887;29;20207;-73
2023/11/12 19:33:19;;;;;;;3.80;1.87;;;9.40;99.90;;;;;;4881647;29;20211;-76
2023/11/12 19:35:46;;;;;;;5.20;2.27;;;9.40;99.90;;;;;;4896438;29;20247;-77
2023/11/12 19:38:15;;;;;;;3.67;2.20;;;9.40;99.90;;;;;;4895900;29;20240;-77
2023/11/12 19:40:43;;;;;;;4.53;1.60;;;9.40;99.90;;;;;;4890117;29;20271;-75
2023/11/12 19:43:11;;;;;;;3.27;1.57;;;9.50;99.90;;;;;;4882257;29;20271;-77
2023/11/12 19:45:38;;;;;;;3.57;2.07;;;9.50;99.90;;;;;;4897671;29;20222;-78
2023/11/12 19:48:05;;;;;;;3.53;1.90;;;9.50;99.90;;;;;;4899826;29;20241;-74
2023/11/12 19:50:34;;;;;;;3.60;2.00;;;9.50;99.90;;;;;;4886475;29;20585;-77
2023/11/12 19:53:01;;;;;;;2.37;1.67;;;9.50;99.90;;;;;;4889373;29;20571;-78
2023/11/12 19:55:29;;;;;;;2.87;1.80;;;9.60;99.90;;;;;;4896876;29;20257;-77
2023/11/12 19:57:56;;;;;;;5.03;1.93;;;9.50;99.90;;;;;;4899145;29;20262;-78
2023/11/12 20:00:23;;;;;;;5.37;2.57;;;9.60;99.90;;;;;;4893750;29;20212;-78
2023/11/12 20:02:50;;;;;;;4.73;2.30;;;9.60;99.90;;;;;;4881279;29;20207;-78
2023/11/12 20:05:17;;;;;;;5.10;1.83;;;9.60;99.90;;;;;;4886410;29;20301;-78
2023/11/12 20:07:45;;;;;;;3.03;1.90;;;9.60;99.90;;;;;;4904558;29;20234;-77
2023/11/12 20:10:13;;;;;;;3.17;1.90;;;9.60;99.90;;;;;;4904452;29;20199;-75
2023/11/12 20:12:39;;;;;;;3.90;1.70;;;9.50;99.90;;;;;;4915741;29;20211;-76
2023/11/12 20:15:08;;;;;;;3.30;1.73;;;9.50;99.90;;;;;;4912035;29;20243;-78
2023/11/12 20:17:35;;;;;;;2.93;1.57;;;9.50;99.90;;;;;;4881921;29;20275;-77
2023/11/12 20:20:01;;;;;;;2.27;1.20;;;9.50;99.90;;;;;;4882277;29;20211;-79
2023/11/12 20:22:30;;;;;;;3.03;1.30;;;9.40;99.90;;;;;;4880916;29;20697;-77
2023/11/12 20:24:58;;;;;;;2.00;1.20;;;9.40;99.90;;;;;;4887799;29;20207;-78
2023/11/12 20:27:25;;;;;;;2.40;1.13;;;9.40;99.90;;;;;;4897554;29;20227;-78
2023/11/12 20:29:55;;;;;;;2.43;1.50;;;9.40;99.90;;;;;;4887676;29;20216;-77
2023/11/12 20:32:22;;;;;;;3.03;1.00;;;9.50;99.90;;;;;;4884805;29;20666;-77
2023/11/12 20:34:50;;;;;;;1.87;1.20;;;9.40;99.90;;;;;;4888932;29;20245;-79
2023/11/12 20:37:18;;;;;;;2.93;1.30;;;9.40;99.90;;;;;;4884707;29;20235;-79
2023/11/12 20:39:45;;;;;;;2.40;1.17;;;9.30;99.90;;;;;;4880791;29;20207;-79
2023/11/12 20:42:14;;;;;;;1.97;1.20;;;9.30;99.90;;;;;;4883182;29;20227;-79
2023/11/12 20:44:42;;;;;;;2.27;1.27;;;9.10;99.90;;;;;;4899930;29;20210;-78
2023/11/12 20:47:12;;;;;;;2.53;1.30;;;9.00;99.90;;;;;;4886643;29;20234;-78
2023/11/12 20:49:39;;;;;;;2.50;1.57;;;9.00;99.90;;;;;;4899153;29;20587;-78
2023/11/12 20:52:08;;;;;;;1.97;1.33;;;8.90;99.90;;;;;;4886685;29;20317;-79
2023/11/12 20:54:37;;;;;;;2.07;1.10;;;8.80;99.90;;;;;;4888525;29;20621;-78
2023/11/12 20:57:05;;;;;;;1.70;1.00;;;8.80;99.90;;;;;;4880573;29;20314;-80
2023/11/12 20:59:34;;;;;;;2.30;1.30;;;8.90;99.90;;;;;;4892185;29;20270;-79
2023/11/12 21:02:00;;;;;;;1.83;1.30;;;8.90;99.90;;;;;;4894243;29;20294;-80
2023/11/12 21:04:27;;;;;;;2.03;1.20;;;8.90;99.90;;;;;;4880076;29;20225;-76
2023/11/12 21:06:54;;;;;;;3.70;1.40;;;9.10;99.90;;;;;;4879980;29;20802;-79
2023/11/12 21:09:21;;;;;;;2.17;1.23;;;9.10;99.90;;;;;;4887639;29;20302;-79
2023/11/12 21:11:48;;;;;;;1.43;1.00;;;9.10;99.90;;;;;;4884468;29;20207;-79
2023/11/12 21:14:15;;;;;;;2.30;1.57;;;8.90;99.90;;;;;;4887906;29;20245;-78
2023/11/12 21:16:43;;;;;;;1.20;0.90;;;8.90;99.90;;;;;;4884934;29;20235;-79
2023/11/12 21:19:10;;;;;;;2.30;0.90;;;9.00;99.90;;;;;;4880289;29;20212;-78
2023/11/12 21:21:38;;;;;;;2.87;1.30;;;9.10;99.90;;;;;;4892395;29;20214;-79
2023/11/12 21:24:07;;;;;;;2.93;1.20;;;9.10;99.90;;;;;;4880319;29;20215;-79
2023/11/12 21:26:35;;;;;;;2.93;1.40;;;9.20;99.90;;;;;;4892896;29;20238;-79
2023/11/12 21:29:02;;;;;;;1.80;1.20;;;9.30;99.90;;;;;;4880205;29;20203;-79
2023/11/12 21:31:29;;;;;;;3.40;1.30;;;9.40;99.90;;;;;;4879680;29;20219;-79
2023/11/12 21:33:57;;;;;;;2.67;1.30;;;9.30;99.90;;;;;;4880232;29;20215;-79
2023/11/12 21:36:25;;;;;;;2.50;1.23;;;9.30;99.90;;;;;;4879065;29;20237;-80
2023/11/12 21:38:52;;;;;;;2.43;1.30;;;9.30;99.90;;;;;;4880272;29;20222;-80
2023/11/12 21:41:19;;;;;;;4.67;1.33;;;9.30;99.90;;;;;;4883767;29;20662;-79
2023/11/12 21:43:46;;;;;;;1.53;1.07;;;9.30;99.90;;;;;;4887924;29;20666;-79
2023/11/12 21:46:15;;;;;;;1.90;1.10;;;9.20;99.90;;;;;;4884505;29;20206;-79
2023/11/12 21:48:45;;;;;;;1.30;1.00;;;9.20;99.90;;;;;;4887171;29;20298;-80
2023/11/12 21:51:14;;;;;;;4.03;1.30;;;9.20;99.90;;;;;;4891338;29;20223;-79
2023/11/12 21:53:42;;;;;;;2.10;0.87;;;9.20;99.90;;;;;;4879743;29;20215;-80
2023/11/12 21:56:12;;;;;;;2.53;1.37;;;9.20;99.90;;;;;;4897387;29;20230;-80
2023/11/12 21:58:39;;;;;;;3.23;1.30;;;9.20;99.90;;;;;;4897210;29;20246;-80
2023/11/12 22:01:06;;;;;;;3.43;1.67;;;9.30;99.90;;;;;;4887574;29;20633;-78
2023/11/12 22:03:34;;;;;;;2.70;1.20;;;9.20;99.90;;;;;;4891277;29;20211;-78
2023/11/12 22:06:01;;;;;;;3.37;1.33;;;9.20;99.90;;;;;;4878939;29;20211;-77
2023/11/12 22:08:29;;;;;;;2.47;1.20;;;9.30;99.90;;;;;;4891397;29;20231;-72
2023/11/12 22:10:56;;;;;;;2.53;1.67;;;9.20;99.90;;;;;;4890067;29;20224;-70
2023/11/12 22:13:23;;;;;;;3.23;1.13;;;9.10;99.90;;;;;;4897339;29;20217;-70
2023/11/12 22:15:50;;;;;;;4.70;1.80;;;9.00;99.90;;;;;;4886588;29;20249;-73
2023/11/12 22:18:18;;;;;;;4.03;1.53;;;9.10;99.90;;;;;;4883329;29;20230;-73
2023/11/12 22:20:45;;;;;;;1.77;1.10;;;9.20;99.90;;;;;;4897098;29;20221;-75
2023/11/12 22:23:12;;;;;;;1.80;1.07;;;9.20;99.90;;;;;;4879398;29;20207;-71
2023/11/12 22:25:40;;;;;;;3.80;1.20;;;9.30;99.90;;;;;;4890255;29;20691;-79
2023/11/12 22:28:07;;;;;;;2.73;1.40;;;9.00;99.90;;;;;;4897237;29;20272;-74
2023/11/12 22:30:35;;;;;;;2.43;2.13;;;9.10;99.90;;;;;;4885740;29;20298;-76
2023/11/12 22:33:02;;;;;;;1.53;1.03;;;9.10;99.90;;;;;;4896967;29;20215;-77
2023/11/12 22:35:29;;;;;;;5.00;1.47;;;9.10;99.90;;;;;;4897495;29;20601;-78
2023/11/12 22:37:56;;;;;;;2.60;1.43;;;9.00;99.90;;;;;;4879296;29;20234;-78
2023/11/12 22:40:24;;;;;;;1.73;1.10;;;9.00;99.90;;;;;;4879053;29;20207;-73
2023/11/12 22:42:52;;;;;;;2.07;1.20;;;9.20;99.90;;;;;;4879182;29;20306;-79
2023/11/12 22:45:19;;;;;;;3.63;1.37;;;9.30;99.90;;;;;;4890935;29;20660;-79
2023/11/12 22:47:46;;;;;;;2.13;1.43;;;9.30;99.90;;;;;;4885548;29;20313;-79
2023/11/12 22:50:16;;;;;;;2.97;1.43;;;9.30;99.90;;;;;;4883986;29;20214;-77
2023/11/12 22:52:43;;;;;;;2.97;1.50;;;9.30;99.90;;;;;;4878726;29;20626;-78
2023/11/12 22:55:11;;;;;;;2.07;1.20;;;9.40;99.90;;;;;;4878711;29;20245;-78
2023/11/12 22:57:39;;;;;;;3.53;1.40;;;9.50;99.90;;;;;;4878804;29;20326;-78
